Marathon Airport Marathon CA
ICAO: CYSP
IATA: YSP
Category: Medium
Scheduled Services: No

Elevation: 1035 ft
TransAlt. 3400 ft.

Airport Communications:
WINNIPEG CNTR:134.075
WINNIPEG RDO:123.55
ATF/UNICOM:122.8

CYSP Zoom In..

If you have problems with the map follow the link
https://www.worldairports.se/pages/airport.php?
ICAO=CYSP

Runways:

(A) RW 16 length 3933 ft width 100 ft
---- / hdg 159

(B) RW 34 length 3933 ft width 100 ft
---- / hdg 339

Location; CYSP
Day. 20 / Time. 21.00 Zulu
* Altimeter: 29.98
* Temperature: -01° c. -30.2°f.
* Wind from: 340° Speed 14 kn with Gusts up to 21 kn.
Dewpoint: -07° c.
Visibility: 15 Statute Miles.
Clouds: Overcast 2600 ft.

CYSP 202100Z 34014G21KT 320V030 15SM OVC026 M01/M07 A2998 RMK SC8 CIG RAG LAST STFD OBS/NEXT 2111200UTC SLP171


Wind From 340°
Speed 14 kn.

 
 
jpsmedia.com for Web Design worldairports.se 2018   terms of use